createdAt,value
2017-01-13T00:00:01.508Z,0
2017-01-13T00:00:29.749Z,0
2017-01-13T00:00:57.975Z,0
2017-01-13T00:01:26.196Z,0
2017-01-13T00:02:37.382Z,0
2017-01-13T00:03:05.417Z,0
2017-01-13T00:03:33.543Z,0
2017-01-13T00:04:01.647Z,0
2017-01-13T00:04:29.755Z,0
2017-01-13T00:04:57.978Z,0
2017-01-13T00:05:26.230Z,0
2017-01-13T00:05:54.435Z,0
2017-01-13T00:06:22.588Z,0
2017-01-13T00:06:50.829Z,0
2017-01-13T00:07:19.047Z,0
2017-01-13T00:08:30.240Z,0
2017-01-13T00:08:58.175Z,0
2017-01-13T00:09:26.532Z,0
2017-01-13T00:09:54.775Z,0
2017-01-13T00:10:22.936Z,0
2017-01-13T00:10:51.064Z,0
2017-01-13T00:11:19.322Z,0
2017-01-13T00:11:47.421Z,0
2017-01-13T00:12:15.706Z,0
2017-01-13T00:12:43.799Z,0
2017-01-13T00:13:12.091Z,0
2017-01-13T00:14:23.353Z,0
2017-01-13T00:14:51.479Z,0
2017-01-13T00:15:19.650Z,0
2017-01-13T00:15:47.893Z,0
2017-01-13T00:16:16.056Z,0
2017-01-13T00:16:44.162Z,0
2017-01-13T00:17:12.380Z,0
2017-01-13T00:17:40.719Z,0
2017-01-13T00:18:09.304Z,0
2017-01-13T00:18:37.433Z,0
2017-01-13T00:19:05.465Z,0
2017-01-13T00:20:16.743Z,0
2017-01-13T00:20:45.047Z,0
2017-01-13T00:21:13.307Z,0
2017-01-13T00:21:41.367Z,0
2017-01-13T00:22:09.430Z,0
2017-01-13T00:22:37.702Z,0
2017-01-13T00:23:05.980Z,0
2017-01-13T00:23:34.125Z,0
2017-01-13T00:24:02.273Z,0
2017-01-13T00:24:30.501Z,0
2017-01-13T00:24:58.726Z,0
2017-01-13T00:26:09.915Z,0
2017-01-13T00:26:38.041Z,0
2017-01-13T00:27:06.388Z,0
2017-01-13T00:27:34.445Z,0
2017-01-13T00:28:02.693Z,0
2017-01-13T00:28:30.959Z,0
2017-01-13T00:28:58.982Z,0
2017-01-13T00:29:27.224Z,0
2017-01-13T00:29:55.373Z,0
2017-01-13T00:30:23.413Z,0
2017-01-13T00:30:51.452Z,0
2017-01-13T00:32:02.747Z,0
2017-01-13T00:32:30.957Z,0
2017-01-13T00:32:59.076Z,0
2017-01-13T00:33:27.156Z,0
2017-01-13T00:33:55.223Z,0
2017-01-13T00:34:23.585Z,0
2017-01-13T00:34:51.792Z,0
2017-01-13T00:35:19.940Z,0
2017-01-13T00:35:47.988Z,0
2017-01-13T00:36:15.905Z,0
2017-01-13T00:36:44.032Z,0
2017-01-13T00:37:55.221Z,0
2017-01-13T00:38:23.346Z,0
2017-01-13T00:38:51.580Z,0
2017-01-13T00:39:19.585Z,0
2017-01-13T00:39:47.690Z,0
2017-01-13T00:40:15.813Z,0
2017-01-13T00:40:43.973Z,0
2017-01-13T00:41:12.079Z,0
2017-01-13T00:41:40.267Z,0
2017-01-13T00:42:08.356Z,0
2017-01-13T00:42:36.436Z,0
2017-01-13T00:43:47.663Z,0
2017-01-13T00:44:15.691Z,0
2017-01-13T00:44:44.044Z,0
2017-01-13T00:45:12.091Z,0
2017-01-13T00:45:40.326Z,0
2017-01-13T00:46:08.561Z,0
2017-01-13T00:46:36.868Z,0
2017-01-13T00:47:05.120Z,0
2017-01-13T00:47:33.222Z,0
2017-01-13T00:48:01.365Z,0
2017-01-13T00:48:29.680Z,0
2017-01-13T00:49:40.685Z,0
2017-01-13T00:50:08.803Z,0
2017-01-13T00:50:37.061Z,0
2017-01-13T00:51:05.119Z,0
2017-01-13T00:51:33.372Z,0
2017-01-13T00:52:01.642Z,0
2017-01-13T00:52:30.037Z,0
2017-01-13T00:52:58.277Z,0
2017-01-13T00:53:26.328Z,0
2017-01-13T00:53:54.463Z,0
2017-01-13T00:54:22.590Z,0
2017-01-13T00:55:33.710Z,0
2017-01-13T00:56:01.830Z,0
2017-01-13T00:56:30.095Z,0
2017-01-13T00:56:58.334Z,0
2017-01-13T00:57:26.590Z,0
2017-01-13T00:57:54.859Z,0
2017-01-13T00:58:23.069Z,0
2017-01-13T00:58:51.218Z,0
2017-01-13T00:59:19.455Z,0
2017-01-13T00:59:47.681Z,0
2017-01-13T01:00:15.811Z,0
2017-01-13T01:01:27.094Z,0
2017-01-13T01:01:55.215Z,0
2017-01-13T01:02:23.581Z,0
2017-01-13T01:02:51.805Z,0
2017-01-13T01:03:20.148Z,0
2017-01-13T01:03:48.422Z,0
2017-01-13T01:04:16.818Z,0
2017-01-13T01:04:45.150Z,0
2017-01-13T01:05:13.302Z,0
2017-01-13T01:05:41.637Z,0
2017-01-13T01:06:09.775Z,0
2017-01-13T01:07:20.872Z,0
2017-01-13T01:07:49.085Z,0
2017-01-13T01:08:17.444Z,0
2017-01-13T01:08:45.590Z,0
2017-01-13T01:09:13.561Z,0
2017-01-13T01:09:41.643Z,0
2017-01-13T01:10:09.959Z,0
2017-01-13T01:10:38.289Z,0
2017-01-13T01:11:06.246Z,0
2017-01-13T01:11:34.384Z,0
2017-01-13T01:12:02.515Z,0
2017-01-13T01:13:13.802Z,0
2017-01-13T01:13:41.927Z,0
2017-01-13T01:14:10.283Z,0
2017-01-13T01:14:38.345Z,0
2017-01-13T01:15:06.416Z,0
2017-01-13T01:15:34.685Z,0
2017-01-13T01:16:02.985Z,0
2017-01-13T01:16:31.135Z,0
2017-01-13T01:16:59.190Z,0
2017-01-13T01:17:27.328Z,0
2017-01-13T01:17:55.461Z,0
2017-01-13T01:19:06.646Z,0
2017-01-13T01:19:34.773Z,0
2017-01-13T01:20:02.944Z,0
2017-01-13T01:20:31.277Z,0
2017-01-13T01:20:59.530Z,0
2017-01-13T01:21:27.886Z,0
2017-01-13T01:21:56.018Z,0
2017-01-13T01:22:24.168Z,0
2017-01-13T01:22:52.509Z,0
2017-01-13T01:23:20.730Z,0
2017-01-13T01:23:48.960Z,0
2017-01-13T01:25:00.148Z,0
2017-01-13T01:25:28.483Z,0
2017-01-13T01:25:56.561Z,0
2017-01-13T01:26:24.946Z,0
2017-01-13T01:26:53.193Z,0
2017-01-13T01:27:21.345Z,0
2017-01-13T01:27:49.570Z,0
2017-01-13T01:28:17.910Z,0
2017-01-13T01:28:46.062Z,0
2017-01-13T01:29:14.378Z,0
2017-01-13T01:29:42.417Z,0
2017-01-13T01:30:53.610Z,0
2017-01-13T01:31:21.847Z,0
2017-01-13T01:31:50.107Z,0
2017-01-13T01:32:18.315Z,0
2017-01-13T01:32:46.652Z,0
2017-01-13T01:33:14.706Z,0
2017-01-13T01:33:43.017Z,0
2017-01-13T01:34:11.071Z,0
2017-01-13T01:34:39.130Z,0
2017-01-13T01:35:07.350Z,0
2017-01-13T01:35:35.399Z,0
2017-01-13T01:36:46.467Z,0
2017-01-13T01:37:14.711Z,0
2017-01-13T01:37:42.972Z,0
2017-01-13T01:38:11.265Z,0
2017-01-13T01:38:39.601Z,0
2017-01-13T01:39:07.653Z,0
2017-01-13T01:39:36.047Z,0
2017-01-13T01:40:04.196Z,0
2017-01-13T01:40:32.354Z,0
2017-01-13T01:41:00.572Z,0
2017-01-13T01:41:28.706Z,0
2017-01-13T01:42:39.806Z,0
2017-01-13T01:43:08.091Z,0
2017-01-13T01:43:36.343Z,0
2017-01-13T01:44:04.548Z,0
2017-01-13T01:44:32.896Z,0
2017-01-13T01:45:01.038Z,0
2017-01-13T01:45:29.247Z,0
2017-01-13T01:45:57.296Z,0
2017-01-13T01:46:25.448Z,0
2017-01-13T01:46:53.487Z,0
2017-01-13T01:47:21.430Z,0
2017-01-13T01:48:32.623Z,0
2017-01-13T01:49:00.867Z,0
2017-01-13T01:49:29.122Z,0
2017-01-13T01:49:57.327Z,0
2017-01-13T01:50:25.671Z,0
2017-01-13T01:50:53.908Z,0
2017-01-13T01:51:22.971Z,0
2017-01-13T01:51:51.222Z,0
2017-01-13T01:52:19.373Z,0
2017-01-13T01:52:47.594Z,0
2017-01-13T01:53:15.632Z,0
2017-01-13T01:54:26.729Z,0
2017-01-13T01:54:54.779Z,0
2017-01-13T01:55:23.035Z,0
2017-01-13T01:55:51.525Z,0
2017-01-13T01:56:19.860Z,0
2017-01-13T01:56:48.103Z,0
2017-01-13T01:57:16.371Z,0
2017-01-13T01:57:44.619Z,0
2017-01-13T01:58:12.866Z,0
2017-01-13T01:58:41.089Z,0
2017-01-13T01:59:09.308Z,0
2017-01-13T02:00:20.501Z,0
2017-01-13T02:00:48.647Z,0
2017-01-13T02:01:16.814Z,0
2017-01-13T02:01:45.203Z,0
2017-01-13T02:02:13.170Z,0
2017-01-13T02:02:41.408Z,0
2017-01-13T02:03:09.721Z,0
2017-01-13T02:03:37.782Z,0
2017-01-13T02:04:06.034Z,0
2017-01-13T02:04:34.358Z,0
2017-01-13T02:05:02.578Z,0
2017-01-13T02:06:13.768Z,0
2017-01-13T02:06:42.106Z,0
2017-01-13T02:07:10.177Z,0
2017-01-13T02:07:38.200Z,0
2017-01-13T02:08:06.355Z,0
2017-01-13T02:08:34.498Z,0
2017-01-13T02:09:02.599Z,0
2017-01-13T02:09:30.933Z,0
2017-01-13T02:09:59.179Z,0
2017-01-13T02:10:27.308Z,0
2017-01-13T02:10:55.346Z,0
2017-01-13T02:12:06.726Z,0
2017-01-13T02:12:35.059Z,0
2017-01-13T02:13:03.415Z,0
2017-01-13T02:13:31.437Z,0
2017-01-13T02:13:59.587Z,0
2017-01-13T02:14:27.825Z,0
2017-01-13T02:14:56.008Z,0
2017-01-13T02:15:24.256Z,0
2017-01-13T02:15:52.507Z,0
2017-01-13T02:16:20.728Z,0
2017-01-13T02:16:49.041Z,0
2017-01-13T02:18:00.136Z,0
2017-01-13T02:18:28.374Z,0
2017-01-13T02:18:56.721Z,0
2017-01-13T02:19:24.832Z,0
2017-01-13T02:19:52.984Z,0
2017-01-13T02:20:21.214Z,0
2017-01-13T02:20:49.413Z,0
2017-01-13T02:21:17.657Z,0
2017-01-13T02:21:45.903Z,0
2017-01-13T02:22:14.123Z,0
2017-01-13T02:22:42.254Z,0
2017-01-13T02:23:53.632Z,0
2017-01-13T02:24:21.792Z,0
2017-01-13T02:24:49.856Z,0
2017-01-13T02:25:17.954Z,0
2017-01-13T02:25:46.010Z,0
2017-01-13T02:26:14.148Z,0
2017-01-13T02:26:42.433Z,0
2017-01-13T02:27:10.676Z,0
2017-01-13T02:27:38.831Z,0
2017-01-13T02:28:07.142Z,0
2017-01-13T02:28:35.279Z,0
2017-01-13T02:29:46.280Z,0
2017-01-13T02:30:14.522Z,0
2017-01-13T02:30:42.500Z,0
2017-01-13T02:31:10.870Z,0
2017-01-13T02:31:39.113Z,0
2017-01-13T02:32:07.256Z,0
2017-01-13T02:32:35.634Z,0
2017-01-13T02:33:03.975Z,0
2017-01-13T02:33:32.128Z,0
2017-01-13T02:34:00.438Z,0
2017-01-13T02:34:28.666Z,0
2017-01-13T02:35:39.766Z,0
2017-01-13T02:36:07.908Z,0
2017-01-13T02:36:36.068Z,0
2017-01-13T02:37:04.358Z,0
2017-01-13T02:37:32.416Z,0
2017-01-13T02:38:00.750Z,0
2017-01-13T02:38:28.837Z,0
2017-01-13T02:38:56.984Z,0
2017-01-13T02:39:25.139Z,0
2017-01-13T02:39:53.454Z,0
2017-01-13T02:40:21.488Z,0
2017-01-13T02:41:32.862Z,0
2017-01-13T02:42:01.003Z,0
2017-01-13T02:42:29.257Z,0
2017-01-13T02:42:57.454Z,0
2017-01-13T02:43:25.698Z,0
2017-01-13T02:43:53.931Z,0
2017-01-13T02:44:22.109Z,0
2017-01-13T02:44:50.353Z,0
2017-01-13T02:45:18.598Z,0
2017-01-13T02:45:46.540Z,0
2017-01-13T02:46:14.763Z,0
2017-01-13T02:47:25.854Z,0
2017-01-13T02:47:53.998Z,0
2017-01-13T02:48:22.155Z,0
2017-01-13T02:48:50.540Z,0
2017-01-13T02:49:18.780Z,0
2017-01-13T02:49:47.110Z,0
2017-01-13T02:50:15.603Z,0
2017-01-13T02:50:44.688Z,0
2017-01-13T02:51:13.627Z,0
2017-01-13T02:51:42.231Z,0
2017-01-13T02:52:10.784Z,0
2017-01-13T02:53:22.190Z,0
2017-01-13T02:53:50.412Z,0
2017-01-13T02:54:18.678Z,0
2017-01-13T02:54:46.919Z,0
2017-01-13T02:55:14.981Z,0
2017-01-13T02:55:43.148Z,0
2017-01-13T02:56:11.444Z,0
2017-01-13T02:56:39.688Z,0
2017-01-13T02:57:07.925Z,0
2017-01-13T02:57:35.960Z,0
2017-01-13T02:58:04.179Z,0
2017-01-13T02:59:15.366Z,0
2017-01-13T02:59:43.303Z,0
2017-01-13T03:00:11.455Z,0
2017-01-13T03:00:39.413Z,0
2017-01-13T03:01:07.468Z,0
2017-01-13T03:01:35.700Z,0
2017-01-13T03:02:04.062Z,0
2017-01-13T03:02:32.119Z,0
2017-01-13T03:03:00.077Z,0
2017-01-13T03:03:28.102Z,0
2017-01-13T03:03:56.417Z,0
2017-01-13T03:05:07.419Z,0
2017-01-13T03:05:35.653Z,0
2017-01-13T03:06:03.815Z,0
2017-01-13T03:06:31.910Z,0
2017-01-13T03:07:00.061Z,0
2017-01-13T03:07:28.299Z,0
2017-01-13T03:07:56.577Z,0
2017-01-13T03:08:24.729Z,0
2017-01-13T03:08:52.976Z,0
2017-01-13T03:09:21.100Z,0
2017-01-13T03:09:49.039Z,0
2017-01-13T03:11:00.137Z,0
2017-01-13T03:11:28.381Z,0
2017-01-13T03:11:56.359Z,0
2017-01-13T03:12:24.452Z,0
2017-01-13T03:12:52.693Z,0
2017-01-13T03:13:20.928Z,0
2017-01-13T03:13:49.109Z,0
2017-01-13T03:14:17.381Z,0
2017-01-13T03:14:45.625Z,0
2017-01-13T03:15:13.847Z,0
2017-01-13T03:15:42.085Z,0
2017-01-13T03:16:53.278Z,0
2017-01-13T03:17:21.512Z,0
2017-01-13T03:17:49.674Z,0
2017-01-13T03:18:17.775Z,0
2017-01-13T03:18:45.831Z,0
2017-01-13T03:19:13.879Z,0
2017-01-13T03:19:42.062Z,0
2017-01-13T03:20:10.403Z,0
2017-01-13T03:20:38.651Z,0
2017-01-13T03:21:06.682Z,0
2017-01-13T03:21:34.809Z,0
2017-01-13T03:22:46.018Z,0
2017-01-13T03:23:14.263Z,0
2017-01-13T03:23:42.515Z,0
2017-01-13T03:24:10.723Z,0
2017-01-13T03:24:38.878Z,0
2017-01-13T03:25:07.114Z,0
2017-01-13T03:25:35.484Z,0
2017-01-13T03:26:03.726Z,0
2017-01-13T03:26:31.981Z,0
2017-01-13T03:27:00.014Z,0
2017-01-13T03:27:28.239Z,0
2017-01-13T03:28:39.520Z,0
2017-01-13T03:29:07.665Z,0
2017-01-13T03:29:35.824Z,0
2017-01-13T03:30:04.030Z,0
2017-01-13T03:30:32.176Z,0
2017-01-13T03:31:00.408Z,0
2017-01-13T03:31:28.681Z,0
2017-01-13T03:31:56.927Z,0
2017-01-13T03:32:25.080Z,0
2017-01-13T03:32:53.298Z,0
2017-01-13T03:33:21.548Z,0
2017-01-13T03:34:32.692Z,0
2017-01-13T03:35:00.697Z,0
2017-01-13T03:35:28.806Z,0
2017-01-13T03:35:56.933Z,0
2017-01-13T03:36:25.035Z,0
2017-01-13T03:36:53.032Z,0
2017-01-13T03:37:21.157Z,0
2017-01-13T03:37:49.343Z,0
2017-01-13T03:38:17.589Z,0
2017-01-13T03:38:45.806Z,0
2017-01-13T03:39:14.026Z,0
2017-01-13T03:40:25.023Z,0
2017-01-13T03:40:53.246Z,0
2017-01-13T03:41:21.505Z,0
2017-01-13T03:41:49.657Z,0
2017-01-13T03:42:18.002Z,0
2017-01-13T03:42:46.166Z,0
2017-01-13T03:43:14.460Z,0
2017-01-13T03:43:42.604Z,0
2017-01-13T03:44:10.655Z,0
2017-01-13T03:44:38.875Z,0
2017-01-13T03:45:07.004Z,0
2017-01-13T03:46:18.381Z,0
2017-01-13T03:46:46.528Z,0
2017-01-13T03:47:14.597Z,0
2017-01-13T03:47:42.621Z,0
2017-01-13T03:48:10.834Z,0
2017-01-13T03:48:39.065Z,0
2017-01-13T03:49:07.055Z,0
2017-01-13T03:49:35.357Z,0
2017-01-13T03:50:03.603Z,0
2017-01-13T03:50:31.709Z,0
2017-01-13T03:50:59.834Z,0
2017-01-13T03:52:11.019Z,0
2017-01-13T03:52:39.162Z,0
2017-01-13T03:53:07.507Z,0
2017-01-13T03:53:35.718Z,0
2017-01-13T03:54:03.870Z,0
2017-01-13T03:54:31.925Z,0
2017-01-13T03:55:00.286Z,0
2017-01-13T03:55:28.532Z,0
2017-01-13T03:55:56.681Z,0
2017-01-13T03:56:24.799Z,0
2017-01-13T03:56:53.027Z,0
2017-01-13T03:58:04.319Z,0
2017-01-13T03:58:32.469Z,0
2017-01-13T03:59:00.728Z,0
2017-01-13T03:59:28.851Z,0
2017-01-13T03:59:57.004Z,0
2017-01-13T04:00:25.060Z,0
2017-01-13T04:00:53.245Z,0
2017-01-13T04:01:21.392Z,0
2017-01-13T04:01:49.547Z,0
2017-01-13T04:02:17.770Z,0
2017-01-13T04:02:45.807Z,0
2017-01-13T04:03:57.085Z,0
2017-01-13T04:04:25.020Z,0
2017-01-13T04:04:53.086Z,0
2017-01-13T04:05:21.327Z,0
2017-01-13T04:05:49.581Z,0
2017-01-13T04:06:17.659Z,0
2017-01-13T04:06:45.679Z,0
2017-01-13T04:07:13.824Z,0
2017-01-13T04:07:42.062Z,0
2017-01-13T04:08:10.193Z,0
2017-01-13T04:08:38.503Z,0
2017-01-13T04:09:49.788Z,0
2017-01-13T04:10:17.999Z,0
2017-01-13T04:10:46.254Z,0
2017-01-13T04:11:14.590Z,0
2017-01-13T04:11:42.746Z,0
2017-01-13T04:12:10.929Z,0
2017-01-13T04:12:39.261Z,0
2017-01-13T04:13:07.500Z,0
2017-01-13T04:13:35.647Z,0
2017-01-13T04:14:03.782Z,0
2017-01-13T04:14:31.627Z,0
2017-01-13T04:15:42.908Z,0
2017-01-13T04:16:10.939Z,0
2017-01-13T04:16:39.286Z,0
2017-01-13T04:17:07.522Z,0
2017-01-13T04:17:35.779Z,0
2017-01-13T04:18:03.946Z,0
2017-01-13T04:18:32.247Z,0
2017-01-13T04:19:00.396Z,0
2017-01-13T04:19:28.354Z,0
2017-01-13T04:19:56.677Z,0
2017-01-13T04:20:24.799Z,0
2017-01-13T04:21:36.176Z,0
2017-01-13T04:22:04.486Z,0
2017-01-13T04:22:32.465Z,0
2017-01-13T04:23:00.585Z,0
2017-01-13T04:23:28.785Z,0
2017-01-13T04:23:56.858Z,0
2017-01-13T04:24:25.067Z,0
2017-01-13T04:24:53.123Z,0
2017-01-13T04:25:21.264Z,0
2017-01-13T04:25:49.400Z,0
2017-01-13T04:26:17.625Z,0
2017-01-13T04:27:28.717Z,0
2017-01-13T04:27:56.837Z,0
2017-01-13T04:28:25.191Z,0
2017-01-13T04:28:53.431Z,0
2017-01-13T04:29:21.775Z,0
2017-01-13T04:29:49.918Z,0
2017-01-13T04:30:18.124Z,0
2017-01-13T04:30:46.270Z,0
2017-01-13T04:31:14.401Z,0
2017-01-13T04:31:42.603Z,0
2017-01-13T04:32:10.912Z,0
2017-01-13T04:33:22.195Z,0
2017-01-13T04:33:50.130Z,0
2017-01-13T04:34:18.391Z,0
2017-01-13T04:34:46.730Z,0
2017-01-13T04:35:14.984Z,0
2017-01-13T04:35:43.343Z,0
2017-01-13T04:36:11.734Z,0
2017-01-13T04:36:40.073Z,0
2017-01-13T04:37:08.219Z,0
2017-01-13T04:37:36.340Z,0
2017-01-13T04:38:04.560Z,0
2017-01-13T04:39:15.614Z,0
2017-01-13T04:39:43.923Z,0
2017-01-13T04:40:12.089Z,0
2017-01-13T04:40:40.236Z,0
2017-01-13T04:41:08.389Z,0
2017-01-13T04:41:36.556Z,0
2017-01-13T04:42:04.765Z,0
2017-01-13T04:42:33.005Z,0
2017-01-13T04:43:01.146Z,0
2017-01-13T04:43:29.282Z,0
2017-01-13T04:43:57.317Z,0
2017-01-13T04:45:08.696Z,0
2017-01-13T04:45:36.912Z,0
2017-01-13T04:46:05.261Z,0
2017-01-13T04:46:33.490Z,0
2017-01-13T04:47:01.833Z,0
2017-01-13T04:47:29.914Z,0
2017-01-13T04:47:58.119Z,0
2017-01-13T04:48:26.365Z,0
2017-01-13T04:48:54.509Z,0
2017-01-13T04:49:22.638Z,0
2017-01-13T04:49:50.858Z,0
2017-01-13T04:51:02.052Z,0
2017-01-13T04:51:30.184Z,0
2017-01-13T04:51:58.440Z,0
2017-01-13T04:52:26.671Z,0
2017-01-13T04:52:54.922Z,0
2017-01-13T04:53:23.185Z,0
2017-01-13T04:53:51.575Z,0
2017-01-13T04:54:19.820Z,0
2017-01-13T04:54:48.059Z,0
2017-01-13T04:55:16.290Z,0
2017-01-13T04:55:44.511Z,0
2017-01-13T04:56:55.702Z,0
2017-01-13T04:57:23.826Z,0
2017-01-13T04:57:52.174Z,0
2017-01-13T04:58:20.316Z,0
2017-01-13T04:58:48.566Z,0
2017-01-13T04:59:16.743Z,0
2017-01-13T04:59:44.954Z,0
2017-01-13T05:00:13.197Z,0
2017-01-13T05:00:41.435Z,0
2017-01-13T05:01:09.666Z,0
2017-01-13T05:01:37.983Z,0
2017-01-13T05:02:48.981Z,0
2017-01-13T05:03:17.111Z,0
2017-01-13T05:03:45.367Z,0
2017-01-13T05:04:13.704Z,0
2017-01-13T05:04:41.957Z,0
2017-01-13T05:05:10.221Z,0
2017-01-13T05:05:38.610Z,0
2017-01-13T05:06:06.764Z,0
2017-01-13T05:06:35.003Z,0
2017-01-13T05:07:03.141Z,0
2017-01-13T05:07:31.360Z,0
2017-01-13T05:08:42.454Z,0
2017-01-13T05:09:10.676Z,0
2017-01-13T05:09:39.033Z,0
2017-01-13T05:10:07.278Z,0
2017-01-13T05:10:35.530Z,0
2017-01-13T05:11:03.796Z,0
2017-01-13T05:11:32.132Z,0
2017-01-13T05:12:00.275Z,0
2017-01-13T05:12:28.611Z,0
2017-01-13T05:12:56.745Z,0
2017-01-13T05:13:24.884Z,0
2017-01-13T05:14:36.266Z,0
2017-01-13T05:15:04.582Z,0
2017-01-13T05:15:32.932Z,0
2017-01-13T05:16:01.081Z,0
2017-01-13T05:16:29.425Z,0
2017-01-13T05:16:57.790Z,0
2017-01-13T05:17:25.994Z,0
2017-01-13T05:17:54.326Z,0
2017-01-13T05:18:22.565Z,0
2017-01-13T05:18:50.706Z,0
2017-01-13T05:19:18.743Z,0
2017-01-13T05:20:29.836Z,0
2017-01-13T05:20:57.966Z,0
2017-01-13T05:21:26.130Z,0
2017-01-13T05:21:54.472Z,0
2017-01-13T05:22:22.729Z,0
2017-01-13T05:22:50.988Z,0
2017-01-13T05:23:19.383Z,0
2017-01-13T05:23:47.626Z,0
2017-01-13T05:24:15.773Z,0
2017-01-13T05:24:43.909Z,0
2017-01-13T05:25:11.855Z,0
2017-01-13T05:26:23.041Z,0
2017-01-13T05:26:51.172Z,0
2017-01-13T05:27:19.528Z,0
2017-01-13T05:27:47.584Z,0
2017-01-13T05:28:15.839Z,0
2017-01-13T05:28:44.198Z,0
2017-01-13T05:29:12.499Z,0
2017-01-13T05:29:40.836Z,0
2017-01-13T05:30:08.986Z,0
2017-01-13T05:30:37.120Z,0
2017-01-13T05:31:05.248Z,0
2017-01-13T05:32:16.529Z,0
2017-01-13T05:32:44.744Z,0
2017-01-13T05:33:12.929Z,0
2017-01-13T05:33:41.076Z,0
2017-01-13T05:34:09.231Z,0
2017-01-13T05:34:37.495Z,0
2017-01-13T05:35:05.611Z,0
2017-01-13T05:35:33.756Z,0
2017-01-13T05:36:01.897Z,0
2017-01-13T05:36:30.034Z,0
2017-01-13T05:36:58.258Z,0
2017-01-13T05:38:09.636Z,0
2017-01-13T05:38:37.756Z,0
2017-01-13T05:39:06.009Z,0
2017-01-13T05:39:34.159Z,0
2017-01-13T05:40:02.219Z,0
2017-01-13T05:40:30.392Z,0
2017-01-13T05:40:58.410Z,0
2017-01-13T05:41:26.552Z,0
2017-01-13T05:41:54.693Z,0
2017-01-13T05:42:22.828Z,0
2017-01-13T05:42:51.144Z,0
2017-01-13T05:44:02.242Z,0
2017-01-13T05:44:30.271Z,0
2017-01-13T05:44:58.618Z,0
2017-01-13T05:45:26.668Z,0
2017-01-13T05:45:54.919Z,0
2017-01-13T05:46:23.093Z,0
2017-01-13T05:46:51.396Z,0
2017-01-13T05:47:19.638Z,0
2017-01-13T05:47:47.876Z,0
2017-01-13T05:48:16.198Z,0
2017-01-13T05:48:44.510Z,0
2017-01-13T05:49:55.605Z,0
2017-01-13T05:50:23.918Z,0
2017-01-13T05:50:51.993Z,0
2017-01-13T05:51:20.332Z,0
2017-01-13T05:51:48.580Z,0
2017-01-13T05:52:16.849Z,0
2017-01-13T05:52:45.150Z,0
2017-01-13T05:53:13.295Z,0
2017-01-13T05:53:41.532Z,0
2017-01-13T05:54:09.667Z,0
2017-01-13T05:54:37.790Z,0
2017-01-13T05:55:48.890Z,0
2017-01-13T05:56:17.008Z,0
2017-01-13T05:56:45.180Z,0
2017-01-13T05:57:13.425Z,0
2017-01-13T05:57:41.582Z,0
2017-01-13T08:43:40.704Z,372
2017-01-13T08:44:09.710Z,380
2017-01-13T08:44:37.933Z,392
2017-01-13T08:45:06.494Z,408
2017-01-13T08:45:34.668Z,432
2017-01-13T08:46:02.862Z,444
2017-01-13T08:46:31.174Z,464
2017-01-13T08:46:59.278Z,488
2017-01-13T08:47:27.526Z,500
2017-01-13T08:47:55.870Z,508
2017-01-13T08:48:24.188Z,508
2017-01-13T08:49:46.836Z,552
2017-01-13T08:50:15.031Z,572
2017-01-13T08:50:43.286Z,592
2017-01-13T08:51:11.848Z,624
2017-01-13T08:51:40.104Z,680
2017-01-13T08:52:08.483Z,736
2017-01-13T08:52:36.776Z,804
2017-01-13T08:53:05.091Z,848
2017-01-13T08:53:33.271Z,844
2017-01-13T08:54:01.560Z,896
2017-01-13T08:54:29.894Z,920
2017-01-13T08:55:41.240Z,944
2017-01-13T08:56:09.418Z,1052
2017-01-13T08:56:37.806Z,1124
2017-01-13T08:57:06.166Z,1188
2017-01-13T08:57:34.548Z,1340
2017-01-13T08:58:02.730Z,1596
2017-01-13T08:58:30.848Z,1896
2017-01-13T08:58:59.113Z,2320
2017-01-13T08:59:27.245Z,2468
2017-01-13T08:59:55.372Z,2568
2017-01-13T09:00:23.564Z,2796
2017-01-13T09:01:34.837Z,3224
2017-01-13T09:02:03.109Z,3412
2017-01-13T09:02:31.403Z,3864
2017-01-13T09:02:59.677Z,4364
2017-01-13T09:03:27.781Z,4820
2017-01-13T09:03:56.061Z,5036
2017-01-13T09:04:24.376Z,5432
2017-01-13T09:04:52.645Z,5512
2017-01-13T09:05:20.973Z,5960
2017-01-13T09:05:49.215Z,5992
2017-01-13T09:06:17.593Z,5560
2017-01-13T09:07:28.958Z,6160
2017-01-13T09:07:57.126Z,6552
2017-01-13T09:08:25.326Z,7100
2017-01-13T09:08:53.402Z,5960
2017-01-13T09:09:21.518Z,6348
2017-01-13T09:09:49.704Z,6720
2017-01-13T09:10:17.919Z,7312
2017-01-13T09:10:46.280Z,7436
2017-01-13T09:11:14.507Z,7340
2017-01-13T09:11:42.570Z,7008
2017-01-13T09:12:10.762Z,6448
2017-01-13T09:13:22.033Z,6784
2017-01-13T09:13:50.402Z,7272
2017-01-13T09:14:18.601Z,7668
2017-01-13T09:14:46.778Z,8976
2017-01-13T09:15:15.155Z,14912
2017-01-13T09:15:43.484Z,22688
2017-01-13T09:16:11.833Z,31584
2017-01-13T09:16:40.283Z,19168
2017-01-13T09:17:08.413Z,16768
2017-01-13T09:17:36.568Z,8452
2017-01-13T09:18:04.856Z,8444
2017-01-13T09:19:16.132Z,11132
2017-01-13T09:19:44.404Z,14724
2017-01-13T09:20:12.613Z,43520
2017-01-13T09:20:40.883Z,44512
2017-01-13T09:21:09.264Z,39616
2017-01-13T09:21:37.544Z,31968
2017-01-13T09:22:05.854Z,35328
2017-01-13T09:22:34.133Z,23296
2017-01-13T09:23:02.464Z,16576
2017-01-13T09:23:30.708Z,24128
2017-01-13T09:23:58.813Z,47296
2017-01-13T09:25:10.091Z,14236
2017-01-13T09:25:38.458Z,13400
2017-01-13T09:26:06.667Z,9844
2017-01-13T09:26:34.936Z,9488
2017-01-13T09:27:03.327Z,16096
2017-01-13T09:27:31.607Z,10300
2017-01-13T09:27:59.825Z,10352
2017-01-13T09:28:28.103Z,10964
2017-01-13T09:28:56.432Z,16288
2017-01-13T09:29:24.682Z,18560
2017-01-13T09:29:52.970Z,10272
2017-01-13T09:31:04.432Z,21440
2017-01-13T09:31:32.707Z,9736
2017-01-13T09:32:01.000Z,9872
2017-01-13T09:32:29.275Z,14088
2017-01-13T09:32:57.585Z,10016
2017-01-13T09:33:25.767Z,9508
2017-01-13T09:33:54.169Z,9380
2017-01-13T09:34:22.443Z,8908
2017-01-13T09:34:50.495Z,12676
2017-01-13T09:35:18.743Z,10496
2017-01-13T09:35:47.127Z,9788
2017-01-13T09:36:58.410Z,46144
2017-01-13T09:37:26.779Z,70976
2017-01-13T09:37:54.981Z,70912
2017-01-13T09:38:23.253Z,71360
2017-01-13T09:38:51.451Z,71424
2017-01-13T09:39:19.644Z,71968
2017-01-13T09:39:47.951Z,72064
2017-01-13T09:40:16.223Z,71104
2017-01-13T09:40:44.556Z,70080
2017-01-13T09:41:12.714Z,71424
2017-01-13T09:41:41.002Z,73216
2017-01-13T09:42:52.792Z,73280
2017-01-13T09:43:21.062Z,66848
2017-01-13T09:43:49.449Z,70912
2017-01-13T09:44:17.821Z,74752
2017-01-13T09:44:46.115Z,78304
2017-01-13T09:45:14.499Z,43680
2017-01-13T09:45:42.531Z,27232
2017-01-13T09:46:10.719Z,18240
2017-01-13T09:46:38.949Z,32352
2017-01-13T09:47:07.218Z,36352
2017-01-13T09:47:35.504Z,23104
2017-01-13T09:48:46.790Z,34112
2017-01-13T09:49:15.156Z,44480
2017-01-13T09:49:43.547Z,63360
2017-01-13T09:50:11.729Z,76576
2017-01-13T09:50:40.039Z,57856
2017-01-13T09:51:08.234Z,65344
2017-01-13T09:51:36.549Z,74752
2017-01-13T09:52:04.823Z,83616
2017-01-13T09:52:32.957Z,84608
2017-01-13T09:53:01.118Z,83520
2017-01-13T09:53:29.312Z,70016
2017-01-13T09:54:40.776Z,19680
2017-01-13T09:55:09.055Z,32192
2017-01-13T09:55:37.356Z,27264
2017-01-13T09:56:05.623Z,30272
2017-01-13T09:56:34.012Z,31488
2017-01-13T09:57:02.396Z,31712
2017-01-13T09:57:30.800Z,22720
2017-01-13T09:57:58.973Z,30784
2017-01-13T09:58:27.204Z,37984
2017-01-13T09:58:55.545Z,38528
2017-01-13T09:59:23.833Z,39456
2017-01-13T10:00:35.118Z,48192
2017-01-13T10:01:03.391Z,70688
2017-01-13T10:01:31.682Z,79488
2017-01-13T10:01:59.863Z,82176
2017-01-13T10:02:28.164Z,83840
2017-01-13T10:02:56.447Z,81600
2017-01-13T10:03:24.764Z,53312
2017-01-13T10:03:53.043Z,59328
2017-01-13T10:04:21.284Z,62912
2017-01-13T10:04:49.351Z,73440
2017-01-13T10:05:17.646Z,68864
2017-01-13T10:06:29.018Z,24960
2017-01-13T10:06:57.201Z,29888
2017-01-13T10:07:25.405Z,49440
2017-01-13T10:07:53.772Z,48416
2017-01-13T10:08:22.067Z,50816
2017-01-13T10:08:50.342Z,58432
2017-01-13T10:09:18.657Z,72672
2017-01-13T10:09:46.838Z,40064
2017-01-13T10:10:14.983Z,50432
2017-01-13T10:10:43.231Z,85344
2017-01-13T10:11:11.437Z,85568
2017-01-13T10:12:22.766Z,68576
2017-01-13T10:12:50.992Z,79136
2017-01-13T10:13:19.150Z,68640
2017-01-13T10:13:47.466Z,60320
2017-01-13T10:14:15.622Z,39136
2017-01-13T10:14:43.958Z,56736
2017-01-13T10:15:12.224Z,23808
2017-01-13T10:15:40.380Z,16448
2017-01-13T10:16:08.565Z,16576
2017-01-13T10:16:36.677Z,19424
2017-01-13T10:17:04.731Z,21600
2017-01-13T10:18:16.045Z,67776
2017-01-13T10:18:44.368Z,60064
2017-01-13T10:19:12.521Z,88224
2017-01-13T10:19:40.651Z,88992
2017-01-13T10:20:08.815Z,81184
2017-01-13T10:20:37.170Z,80736
2017-01-13T10:21:05.480Z,58688
2017-01-13T10:21:33.657Z,68000
2017-01-13T10:22:01.985Z,69952
2017-01-13T10:22:30.336Z,57120
2017-01-13T10:22:58.724Z,31680
2017-01-13T10:24:10.098Z,29312
2017-01-13T10:24:38.372Z,20512
2017-01-13T10:25:06.550Z,22144
2017-01-13T10:25:34.827Z,24064
2017-01-13T10:26:03.020Z,21632
2017-01-13T10:26:31.305Z,19936